An Run Da 2 — BHNX — position and weather

sailwx.info

Track history (hours):
 
Tides and Currents Weather Stations Pressure Air Temp Water Temp Dewpoint Dewpoint Depression Visibility Wind Speed Wind Dir Waves Ship Positions

An Run Da 2

Last reported at 2015-May-25 17:16 UTC. Time now 2015-May-25 21:30 UTC.
Position N 35°25' E 122°53'.

Length 147 m; draft 8.6 m.

Type: Cargo ship. MMSI: 413360230.

Date/timePositionNaut miles runAvg speedWind from/ knotsBaromVisibWave heightAir tempDewpointWater temp
2015-May-25 17:16N 35°25' E 122°53'9 9.1
2015-May-25 16:16N 35°34' E 122°52'7 9.1
2015-May-25 15:32N 35°40' E 122°52'9 9.0
2015-May-25 14:34N 35°49' E 122°52'9 9.1
2015-May-25 13:33N 35°58' E 122°52'9 9.2
2015-May-25 12:31N 36°08' E 122°52'9 9.4
2015-May-25 11:31N 36°17' E 122°51'9 9.1
2015-May-25 10:33N 36°26' E 122°52'10 9.8
2015-May-25 09:33N 36°36' E 122°51'10 9.9
2015-May-25 08:32N 36°46' E 122°49'1010.0
2015-May-25 07:33N 36°56' E 122°48'10 9.7
2015-May-25 06:33N 37°05' E 122°47'9 9.2
2015-May-25 05:32N 37°15' E 122°47'8 8.5
2015-May-25 04:32N 37°23' E 122°46'10 7.6
2015-May-25 03:17N 37°31' E 122°41'6 7.9
2015-May-25 02:31N 37°34' E 122°34'8 8.3
2015-May-25 01:32N 37°37' E 122°24'9 8.9
2015-May-25 00:33N 37°39' E 122°14'9 9.2
2015-May-24 23:33N 37°42' E 122°02'9 9.5
2015-May-24 22:33N 37°45' E 121°51'9 9.4
2015-May-24 21:33N 37°48' E 121°40'9 9.1
2015-May-24 20:33N 37°51' E 121°29'9 9.0
2015-May-24 19:33N 37°53' E 121°18'10 9.5
2015-May-24 18:33N 37°56' E 121°06'11 9.8
2015-May-24 17:26N 37°59' E 120°53'910.4
2015-May-24 16:33N 38°01' E 120°42'11 9.5
2015-May-24 15:27N 38°02' E 120°28'9 9.7
2015-May-24 14:32N 38°07' E 120°19'14 9.5
2015-May-24 13:05N 38°12' E 120°03'5 9.1
2015-May-24 12:33N 38°15' E 119°57'9 8.8
2015-May-24 11:33N 38°19' E 119°48'28 8.2
2015-May-24 08:09N 38°33' E 119°17'9 8.0
2015-May-24 07:05N 38°38' E 119°09'55 9.7
2015-May-24 01:21N 38°56' E 118°01'8 9.6
2015-May-24 00:33N 38°58' E 117°52'4 3.6
2015-May-23 23:33N 38°58' E 117°47'0 0.0
2015-May-23 22:29N 38°58' E 117°47'0 0.0
2015-May-23 21:32N 38°58' E 117°47'0 0.0
2015-May-23 19:10N 38°58' E 117°47'0 0.0
2015-May-23 16:31N 38°58' E 117°47'0 0.0
2015-May-23 15:31N 38°58' E 117°47'0 0.0
2015-May-23 14:31N 38°58' E 117°47'0 0.0
2015-May-23 13:19N 38°58' E 117°47'0 0.1
2015-May-23 12:33N 38°58' E 117°47'1 0.6
2015-May-23 11:33N 38°58' E 117°48'3 2.8
2015-May-23 10:33N 38°58' E 117°51'7 6.8
2015-May-23 09:33N 38°57' E 118°00'3 2.5
2015-May-23 08:19N 38°58' E 118°04'0 0.0
2015-May-22 17:20N 38°58' E 118°04'0 0.0
2015-May-21 02:18N 38°57' E 118°04'0 0.0
2015-May-20 11:06N 38°58' E 118°04'0 0.0
2015-May-19 09:14N 38°57' E 118°04'0 0.0
2015-May-18 18:13N 38°58' E 118°04'0 0.0
2015-May-18 16:25N 38°58' E 118°04'0 0.0
2015-May-18 04:10N 38°58' E 118°04'0 0.0
2015-May-18 03:32N 38°58' E 118°04'0 0.0
2015-May-17 10:22N 38°58' E 118°04'2 0.3
2015-May-17 03:16N 38°56' E 118°06'11211.2
2015-May-16 17:14N 38°09' E 120°16'2012.0
2015-May-16 15:33N 38°02' E 120°40'4012.2
2015-May-16 12:15N 37°53' E 121°30'3411.4
2015-May-16 09:18N 37°43' E 122°11'912.1
2015-May-16 08:33N 37°40' E 122°21'1312.6
2015-May-16 07:33N 37°36' E 122°36'1511.6
2015-May-16 06:13N 37°26' E 122°51'1011.4
2015-May-16 05:19N 37°16' E 122°52'1210.9
2015-May-16 04:14N 37°04' E 122°52'810.9
2015-May-16 03:31N 36°56' E 122°52'1010.5
2015-May-16 02:33N 36°46' E 122°52'  
Track history (hours):
 
Tides and Currents Weather Stations Pressure Air Temp Water Temp Dewpoint Dewpoint Depression Visibility Wind Speed Wind Dir Waves Ship Positions

An Run Da 2

Last reported at 2015-May-25 17:16 UTC. Time now 2015-May-25 21:30 UTC.
Position N 35°25' E 122°53'.

Length 147 m; draft 8.6 m.

Type: Cargo ship. MMSI: 413360230.

Date/timePositionNaut miles runAvg speedWind from/ knotsBaromVisibWave heightAir tempDewpointWater temp
2015-May-25 17:16N 35°25' E 122°53'9 9.1
2015-May-25 16:16N 35°34' E 122°52'7 9.1
2015-May-25 15:32N 35°40' E 122°52'9 9.0
2015-May-25 14:34N 35°49' E 122°52'9 9.1
2015-May-25 13:33N 35°58' E 122°52'9 9.2
2015-May-25 12:31N 36°08' E 122°52'9 9.4
2015-May-25 11:31N 36°17' E 122°51'9 9.1
2015-May-25 10:33N 36°26' E 122°52'10 9.8
2015-May-25 09:33N 36°36' E 122°51'10 9.9
2015-May-25 08:32N 36°46' E 122°49'1010.0
2015-May-25 07:33N 36°56' E 122°48'10 9.7
2015-May-25 06:33N 37°05' E 122°47'9 9.2
2015-May-25 05:32N 37°15' E 122°47'8 8.5
2015-May-25 04:32N 37°23' E 122°46'10 7.6
2015-May-25 03:17N 37°31' E 122°41'6 7.9
2015-May-25 02:31N 37°34' E 122°34'8 8.3
2015-May-25 01:32N 37°37' E 122°24'9 8.9
2015-May-25 00:33N 37°39' E 122°14'9 9.2
2015-May-24 23:33N 37°42' E 122°02'9 9.5
2015-May-24 22:33N 37°45' E 121°51'9 9.4
2015-May-24 21:33N 37°48' E 121°40'9 9.1
2015-May-24 20:33N 37°51' E 121°29'9 9.0
2015-May-24 19:33N 37°53' E 121°18'10 9.5
2015-May-24 18:33N 37°56' E 121°06'11 9.8
2015-May-24 17:26N 37°59' E 120°53'910.4
2015-May-24 16:33N 38°01' E 120°42'11 9.5
2015-May-24 15:27N 38°02' E 120°28'9 9.7
2015-May-24 14:32N 38°07' E 120°19'14 9.5
2015-May-24 13:05N 38°12' E 120°03'5 9.1
2015-May-24 12:33N 38°15' E 119°57'9 8.8
2015-May-24 11:33N 38°19' E 119°48'28 8.2
2015-May-24 08:09N 38°33' E 119°17'9 8.0
2015-May-24 07:05N 38°38' E 119°09'55 9.7
2015-May-24 01:21N 38°56' E 118°01'8 9.6
2015-May-24 00:33N 38°58' E 117°52'4 3.6
2015-May-23 23:33N 38°58' E 117°47'0 0.0
2015-May-23 22:29N 38°58' E 117°47'0 0.0
2015-May-23 21:32N 38°58' E 117°47'0 0.0
2015-May-23 19:10N 38°58' E 117°47'0 0.0
2015-May-23 16:31N 38°58' E 117°47'0 0.0
2015-May-23 15:31N 38°58' E 117°47'0 0.0
2015-May-23 14:31N 38°58' E 117°47'0 0.0
2015-May-23 13:19N 38°58' E 117°47'0 0.1
2015-May-23 12:33N 38°58' E 117°47'1 0.6
2015-May-23 11:33N 38°58' E 117°48'3 2.8
2015-May-23 10:33N 38°58' E 117°51'7 6.8
2015-May-23 09:33N 38°57' E 118°00'3 2.5
2015-May-23 08:19N 38°58' E 118°04'0 0.0
2015-May-22 17:20N 38°58' E 118°04'0 0.0
2015-May-21 02:18N 38°57' E 118°04'0 0.0
2015-May-20 11:06N 38°58' E 118°04'0 0.0
2015-May-19 09:14N 38°57' E 118°04'0 0.0
2015-May-18 18:13N 38°58' E 118°04'0 0.0
2015-May-18 16:25N 38°58' E 118°04'0 0.0
2015-May-18 04:10N 38°58' E 118°04'0 0.0
2015-May-18 03:32N 38°58' E 118°04'0 0.0
2015-May-17 10:22N 38°58' E 118°04'2 0.3
2015-May-17 03:16N 38°56' E 118°06'11211.2
2015-May-16 17:14N 38°09' E 120°16'2012.0
2015-May-16 15:33N 38°02' E 120°40'4012.2
2015-May-16 12:15N 37°53' E 121°30'3411.4
2015-May-16 09:18N 37°43' E 122°11'912.1
2015-May-16 08:33N 37°40' E 122°21'1312.6
2015-May-16 07:33N 37°36' E 122°36'1511.6
2015-May-16 06:13N 37°26' E 122°51'1011.4
2015-May-16 05:19N 37°16' E 122°52'1210.9
2015-May-16 04:14N 37°04' E 122°52'810.9
2015-May-16 03:31N 36°56' E 122°52'1010.5
2015-May-16 02:33N 36°46' E 122°52'  

Dump ship's entire track history